Time;durP1;ratioP1;P1;durP2;ratioP2;P2;SDS_P1;SDS_P2;PMS_P1;PMS_P2;Temp;Humidity;BMP_temperature;BMP_pressure;BME280_temperature;BME280_humidity;BME280_pressure;Samples;Min_cycle;Max_cycle;Signal;HPM_P1;HPM_P2
2022/07/19 00:00:26;;;;;;;15.18;7.60;;;;;;;;;;5001810;28;20402;-83
2022/07/19 00:02:52;;;;;;;13.05;7.32;;;20.40;99.90;;;;;;5001704;28;20041;-87
2022/07/19 00:05:19;;;;;;;10.88;7.10;;;;;;;;;;5018168;28;20053;-85
2022/07/19 00:07:45;;;;;;;10.15;7.10;;;;;;;;;;5018169;28;20045;-85
2022/07/19 00:10:13;;;;;;;15.40;7.15;;;20.20;99.90;;;;;;5001696;28;20091;-86
2022/07/19 00:12:40;;;;;;;9.00;6.40;;;20.20;99.90;;;;;;5018636;28;20060;-86
2022/07/19 00:15:07;;;;;;;10.77;7.22;;;19.70;99.90;;;;;;5003659;28;20041;-86
2022/07/19 00:17:34;;;;;;;9.65;7.38;;;;;;;;;;5004706;28;20453;-87
2022/07/19 00:19:59;;;;;;;8.00;6.57;;;20.40;99.90;;;;;;5004071;28;20092;-86
2022/07/19 00:22:26;;;;;;;11.63;7.00;;;;;;;;;;5003735;28;20050;-87
2022/07/19 00:24:51;;;;;;;10.23;6.95;;;19.90;99.90;;;;;;5021403;28;20045;-86
2022/07/19 00:27:20;;;;;;;14.75;7.20;;;;;;;;;;5019992;28;20592;-86
2022/07/19 00:29:46;;;;;;;9.25;7.45;;;;;;;;;;5004292;28;20046;-87
2022/07/19 00:32:12;;;;;;;11.23;7.20;;;;;;;;;;5004662;28;20048;-86
2022/07/19 00:34:38;;;;;;;11.35;7.50;;;;;;;;;;5004398;28;20060;-87
2022/07/19 00:37:04;;;;;;;10.15;7.20;;;;;;;;;;5004593;28;20054;-86
2022/07/19 00:39:30;;;;;;;11.35;6.68;;;20.10;99.90;;;;;;5004223;28;20041;-88
2022/07/19 00:41:56;;;;;;;12.95;7.82;;;;;;;;;;5003928;28;20038;-86
2022/07/19 00:44:23;;;;;;;9.40;7.50;;;;;;;;;;5020489;28;20041;-85
2022/07/19 00:46:49;;;;;;;11.63;6.60;;;;;;;;;;5000583;28;20052;-81
2022/07/19 00:49:15;;;;;;;9.50;7.05;;;;;;;;;;5034642;28;20045;-82
2022/07/19 00:51:43;;;;;;;8.63;6.75;;;19.60;99.90;;;;;;5017315;28;20136;-83
2022/07/19 00:54:12;;;;;;;11.95;7.88;;;19.80;99.90;;;;;;5016539;28;20038;-84
2022/07/19 00:56:38;;;;;;;10.02;7.30;;;19.60;99.90;;;;;;5034334;28;20053;-83
2022/07/19 00:59:05;;;;;;;14.05;6.95;;;19.60;99.90;;;;;;5034173;28;20088;-85
2022/07/19 01:01:31;;;;;;;8.07;6.50;;;19.40;99.90;;;;;;5034166;28;20056;-81
2022/07/19 01:03:58;;;;;;;11.60;7.38;;;19.80;99.90;;;;;;5034399;28;20052;-81
2022/07/19 01:06:24;;;;;;;8.60;7.00;;;;;;;;;;5016320;28;20050;-81
2022/07/19 01:08:50;;;;;;;10.05;7.00;;;;;;;;;;5016276;28;20041;-81
2022/07/19 01:11:16;;;;;;;11.18;6.82;;;;;;;;;;4999564;28;20107;-81
2022/07/19 01:13:42;;;;;;;9.60;6.82;;;;;;;;;;5016104;28;20052;-81
2022/07/19 01:16:09;;;;;;;8.90;7.20;;;;;;;;;;5016456;28;20453;-82
2022/07/19 01:18:34;;;;;;;11.00;7.00;;;19.40;99.90;;;;;;5016100;28;20092;-82
2022/07/19 01:21:03;;;;;;;13.20;7.25;;;19.60;99.90;;;;;;5000028;28;20080;-82
2022/07/19 01:23:29;;;;;;;9.95;7.30;;;;;;;;;;5015958;28;20057;-81
2022/07/19 01:25:55;;;;;;;12.90;7.90;;;;;;;;;;4999944;28;20051;-81
2022/07/19 01:28:21;;;;;;;11.13;6.55;;;;;;;;;;4999500;28;20046;-83
2022/07/19 01:30:47;;;;;;;9.68;6.75;;;;;;;;;;5015991;28;20197;-80
2022/07/19 01:33:17;;;;;;;11.82;6.70;;;19.30;99.90;;;;;;5000136;28;20045;-81
2022/07/19 01:35:43;;;;;;;8.27;6.70;;;;;;;;;;5016034;28;20038;-81
2022/07/19 01:38:09;;;;;;;12.50;6.78;;;;;;;;;;4999421;28;20046;-81
2022/07/19 01:40:35;;;;;;;9.63;6.38;;;;;;;;;;4999413;28;20060;-81
2022/07/19 01:43:01;;;;;;;15.27;7.38;;;;;;;;;;4999070;28;20128;-81
2022/07/19 01:45:27;;;;;;;12.90;7.90;;;;;;;;;;5015645;28;20045;-84
2022/07/19 01:47:53;;;;;;;10.27;6.47;;;;;;;;;;5015595;28;20060;-80
2022/07/19 01:50:19;;;;;;;9.68;6.40;;;;;;;;;;4999290;28;20180;-81
2022/07/19 01:52:46;;;;;;;11.02;6.78;;;;;;;;;;4999248;28;20060;-83
2022/07/19 01:55:12;;;;;;;11.30;7.22;;;;;;;;;;4999110;28;20041;-81
2022/07/19 01:57:38;;;;;;;11.15;6.60;;;;;;;;;;4999346;28;20134;-82
2022/07/19 02:00:05;;;;;;;11.32;6.82;;;19.20;99.90;;;;;;4999230;28;20049;-81
2022/07/19 02:02:31;;;;;;;13.85;7.20;;;;;;;;;;4999076;28;20045;-81
2022/07/19 02:04:57;;;;;;;9.07;6.20;;;;;;;;;;4998761;28;20148;-82
2022/07/19 02:07:23;;;;;;;7.82;6.82;;;;;;;;;;5015527;28;20088;-82
2022/07/19 02:09:49;;;;;;;11.07;7.25;;;;;;;;;;4999031;28;20038;-82
2022/07/19 02:12:16;;;;;;;9.52;7.38;;;;;;;;;;4999187;28;20040;-81
2022/07/19 02:14:42;;;;;;;8.05;6.68;;;;;;;;;;4998661;28;20037;-81
2022/07/19 02:17:08;;;;;;;10.38;6.68;;;;;;;;;;4998776;28;20132;-84
2022/07/19 02:19:34;;;;;;;8.73;6.72;;;;;;;;;;4998872;28;20084;-84
2022/07/19 02:22:00;;;;;;;10.18;7.43;;;;;;;;;;5014197;28;20390;-81
2022/07/19 02:24:26;;;;;;;12.93;7.00;;;19.10;99.90;;;;;;4998744;28;20053;-86
2022/07/19 02:26:52;;;;;;;9.55;6.97;;;18.90;99.90;;;;;;4998782;28;20049;-85
2022/07/19 02:29:18;;;;;;;10.27;6.68;;;;;;;;;;5014808;28;20049;-86
2022/07/19 02:31:44;;;;;;;8.73;6.32;;;18.60;99.90;;;;;;4998697;28;20513;-85
2022/07/19 02:34:10;;;;;;;11.45;7.22;;;;;;;;;;4998569;28;20045;-87
2022/07/19 02:36:36;;;;;;;12.30;7.70;;;;;;;;;;4998562;28;20045;-87
2022/07/19 02:39:02;;;;;;;10.18;6.50;;;;;;;;;;5014922;28;20057;-86
2022/07/19 02:41:29;;;;;;;10.50;7.82;;;;;;;;;;5014862;28;20405;-86
2022/07/19 02:43:55;;;;;;;8.35;7.00;;;;;;;;;;5014647;28;20048;-84
2022/07/19 02:46:21;;;;;;;13.15;7.30;;;;;;;;;;5014369;28;20041;-87
2022/07/19 02:48:47;;;;;;;9.35;6.50;;;;;;;;;;5014743;28;20406;-86
2022/07/19 02:51:13;;;;;;;9.52;6.95;;;18.80;99.90;;;;;;4998612;28;20427;-84
2022/07/19 02:53:40;;;;;;;28.67;7.40;;;;;;;;;;5031060;28;20084;-85
2022/07/19 02:56:05;;;;;;;12.48;6.95;;;18.70;99.90;;;;;;5032325;28;20421;-87
2022/07/19 02:58:32;;;;;;;12.10;7.07;;;;;;;;;;4998033;28;20052;-85
2022/07/19 03:00:58;;;;;;;15.25;7.82;;;;;;;;;;5014540;28;20052;-84
2022/07/19 03:06:08;;;;;;;9.77;7.10;;;18.60;99.90;;;;;;5014187;28;20057;-83
2022/07/19 03:08:34;;;;;;;9.35;6.65;;;;;;;;;;4997908;28;20049;-83
2022/07/19 03:11:00;;;;;;;8.88;6.70;;;;;;;;;;5014481;28;20041;-86
2022/07/19 03:13:26;;;;;;;8.95;7.35;;;;;;;;;;5014459;28;20553;-83
2022/07/19 03:15:52;;;;;;;8.60;6.93;;;;;;;;;;4997561;28;20089;-82
2022/07/19 03:18:18;;;;;;;7.55;6.38;;;;;;;;;;5014136;28;20137;-84
2022/07/19 03:20:44;;;;;;;9.88;6.75;;;;;;;;;;5013970;28;20049;-83
2022/07/19 03:23:10;;;;;;;13.35;7.72;;;;;;;;;;4997330;28;20057;-84
2022/07/19 03:25:36;;;;;;;7.43;6.55;;;18.40;99.90;;;;;;5013702;28;20046;-84
2022/07/19 03:28:02;;;;;;;11.68;6.65;;;;;;;;;;5013647;28;20049;-85
2022/07/19 03:30:28;;;;;;;9.27;6.85;;;;;;;;;;4997631;28;20476;-82
2022/07/19 03:32:55;;;;;;;11.98;7.28;;;;;;;;;;5013314;28;20045;-83
2022/07/19 03:35:21;;;;;;;9.63;6.90;;;;;;;;;;4997168;28;20490;-83
2022/07/19 03:37:47;;;;;;;8.40;6.35;;;18.40;99.90;;;;;;4997462;28;20052;-82
2022/07/19 03:40:13;;;;;;;13.65;7.70;;;;;;;;;;4997972;28;20041;-86
2022/07/19 03:42:39;;;;;;;9.02;6.43;;;;;;;;;;4997355;28;20119;-83
2022/07/19 03:45:05;;;;;;;8.35;6.15;;;18.00;99.90;;;;;;5013930;28;20136;-82
2022/07/19 03:47:31;;;;;;;9.65;6.93;;;18.50;99.90;;;;;;4997099;28;20136;-85
2022/07/19 03:49:58;;;;;;;8.75;6.63;;;;;;;;;;4997434;28;20103;-81
2022/07/19 03:52:24;;;;;;;11.20;7.05;;;18.30;99.90;;;;;;4997519;28;20560;-82
2022/07/19 03:54:50;;;;;;;8.32;6.50;;;;;;;;;;4997296;28;20478;-82
2022/07/19 03:57:16;;;;;;;6.78;5.85;;;;;;;;;;4997307;28;20068;-82
2022/07/19 03:59:42;;;;;;;9.68;6.30;;;;;;;;;;5013812;28;20129;-82
2022/07/19 04:02:08;;;;;;;9.95;6.30;;;;;;;;;;5013214;28;20512;-82
2022/07/19 04:04:34;;;;;;;8.68;6.45;;;18.30;99.90;;;;;;4997550;28;20136;-82
2022/07/19 04:07:01;;;;;;;8.45;6.47;;;;;;;;;;5013778;28;20041;-82
2022/07/19 04:09:27;;;;;;;10.90;6.40;;;;;;;;;;4997479;28;20056;-82
2022/07/19 04:11:53;;;;;;;8.68;6.05;;;;;;;;;;5013843;28;20122;-82
2022/07/19 04:14:19;;;;;;;9.13;5.68;;;;;;;;;;4997261;28;20038;-82
2022/07/19 04:16:45;;;;;;;9.38;5.97;;;;;;;;;;5013414;28;20102;-85
2022/07/19 04:19:11;;;;;;;9.75;6.43;;;;;;;;;;4998081;28;20063;-84
2022/07/19 04:21:37;;;;;;;8.95;6.88;;;18.50;99.90;;;;;;4997630;28;20048;-86
2022/07/19 04:24:03;;;;;;;17.52;6.28;;;;;;;;;;4997667;28;20061;-83
2022/07/19 04:26:29;;;;;;;7.43;6.28;;;;;;;;;;5014322;28;20398;-85
2022/07/19 04:28:55;;;;;;;7.30;6.28;;;;;;;;;;4997526;28;20041;-84
2022/07/19 04:31:21;;;;;;;8.18;6.18;;;;;;;;;;4997275;28;20136;-84
2022/07/19 04:33:47;;;;;;;11.73;6.60;;;;;;;;;;5013918;28;20054;-83
2022/07/19 04:36:13;;;;;;;8.70;6.47;;;;;;;;;;4997430;28;20041;-82
2022/07/19 04:38:40;;;;;;;9.57;6.68;;;;;;;;;;4997871;28;20045;-84
2022/07/19 04:41:07;;;;;;;12.80;6.50;;;18.20;99.90;;;;;;4997282;28;20132;-83
2022/07/19 04:43:33;;;;;;;9.98;6.43;;;;;;;;;;5013476;28;20064;-89
2022/07/19 04:45:59;;;;;;;11.32;7.20;;;;;;;;;;5000552;28;20482;-85
2022/07/19 04:48:26;;;;;;;9.35;6.90;;;18.50;99.90;;;;;;5000645;28;20053;-84
2022/07/19 04:50:53;;;;;;;13.43;6.88;;;;;;;;;;5017353;28;20045;-86
2022/07/19 04:53:19;;;;;;;8.27;5.97;;;18.60;99.90;;;;;;5000749;28;20046;-86
2022/07/19 04:55:45;;;;;;;10.30;6.15;;;;;;;;;;5017526;28;20053;-83
2022/07/19 04:58:11;;;;;;;8.63;6.22;;;;;;;;;;5017520;28;20041;-85
2022/07/19 05:00:37;;;;;;;9.20;5.90;;;18.60;99.90;;;;;;5001121;28;20091;-83
2022/07/19 05:03:05;;;;;;;13.40;5.55;;;;;;;;;;5018065;28;20180;-84
2022/07/19 05:05:31;;;;;;;10.95;7.03;;;;;;;;;;5001188;28;20042;-85
2022/07/19 05:07:56;;;;;;;8.73;5.60;;;18.70;99.90;;;;;;5001497;28;20132;-86
2022/07/19 05:10:23;;;;;;;8.02;5.93;;;;;;;;;;5002071;28;20138;-86
2022/07/19 05:12:49;;;;;;;10.95;6.43;;;;;;;;;;5002232;28;20042;-88
2022/07/19 05:15:15;;;;;;;10.40;5.72;;;;;;;;;;5004401;28;20045;-83
2022/07/19 05:17:42;;;;;;;14.50;6.68;;;;;;;;;;5004753;28;20045;-82
2022/07/19 05:20:10;;;;;;;7.60;5.78;;;18.80;99.90;;;;;;5022147;28;20053;-82
2022/07/19 05:22:36;;;;;;;9.75;5.78;;;;;;;;;;5024796;28;20063;-88
2022/07/19 05:25:02;;;;;;;10.95;6.55;;;18.80;99.90;;;;;;5007290;28;20119;-82
2022/07/19 05:27:28;;;;;;;7.50;5.50;;;18.90;99.90;;;;;;5026111;28;20049;-82
2022/07/19 05:29:54;;;;;;;11.35;6.63;;;;;;;;;;5020567;28;20050;-82
2022/07/19 05:32:20;;;;;;;7.07;5.55;;;;;;;;;;5001646;28;20493;-82
2022/07/19 05:34:46;;;;;;;9.60;6.07;;;;;;;;;;5000691;28;20049;-84
2022/07/19 05:37:12;;;;;;;8.52;5.40;;;;;;;;;;4999997;28;20521;-82
2022/07/19 05:39:38;;;;;;;10.68;6.10;;;;;;;;;;4999575;28;20068;-83
2022/07/19 05:42:04;;;;;;;12.15;5.78;;;;;;;;;;5015634;28;20049;-83
2022/07/19 05:44:30;;;;;;;10.02;5.60;;;;;;;;;;4999268;28;20051;-83
2022/07/19 05:46:56;;;;;;;7.40;5.80;;;;;;;;;;5015870;28;20099;-83
2022/07/19 05:49:23;;;;;;;6.80;5.32;;;;;;;;;;4999353;28;20045;-82
2022/07/19 05:51:49;;;;;;;11.75;6.22;;;;;;;;;;4998881;28;20052;-84
2022/07/19 05:54:17;;;;;;;8.07;6.03;;;;;;;;;;4999439;28;20045;-84
2022/07/19 05:56:43;;;;;;;12.15;5.80;;;;;;;;;;4998072;28;20041;-87
2022/07/19 05:59:09;;;;;;;6.57;5.65;;;;;;;;;;4998973;28;20095;-83
2022/07/19 06:01:35;;;;;;;14.10;6.10;;;;;;;;;;5015528;28;20056;-86
2022/07/19 06:04:01;;;;;;;11.60;5.63;;;;;;;;;;5015341;28;20257;-82
2022/07/19 06:06:30;;;;;;;10.65;5.70;;;19.90;99.90;;;;;;4998822;28;20042;-82
2022/07/19 06:08:56;;;;;;;11.65;6.68;;;;;;;;;;4998927;28;20136;-85
2022/07/19 06:11:23;;;;;;;10.82;5.50;;;;;;;;;;4998744;28;20053;-84
2022/07/19 06:13:49;;;;;;;10.23;5.75;;;;;;;;;;4998988;28;20049;-82
2022/07/19 06:16:15;;;;;;;7.63;5.90;;;;;;;;;;5015053;28;20055;-85
2022/07/19 06:18:41;;;;;;;6.55;5.25;;;;;;;;;;4998928;28;20041;-85
2022/07/19 06:21:11;;;;;;;9.50;6.03;;;20.30;99.90;;;;;;5015002;28;20504;-83
2022/07/19 06:23:39;;;;;;;8.52;5.00;;;20.40;99.90;;;;;;4998292;28;20069;-84
2022/07/19 06:26:05;;;;;;;8.38;5.20;;;20.30;99.90;;;;;;5016235;28;20045;-91
2022/07/19 06:28:31;;;;;;;7.03;5.85;;;;;;;;;;5016221;28;20564;-91
2022/07/19 06:30:59;;;;;;;8.57;6.30;;;20.70;99.90;;;;;;5016121;28;20084;-91
2022/07/19 06:33:25;;;;;;;6.18;5.57;;;21.00;99.90;;;;;;5032328;28;20044;-91
2022/07/19 06:35:51;;;;;;;9.07;5.07;;;21.10;99.90;;;;;;4999657;28;20140;-89
2022/07/19 06:38:17;;;;;;;9.55;4.97;;;;;;;;;;5015695;28;20498;-92
2022/07/19 06:40:43;;;;;;;5.97;4.82;;;21.40;99.90;;;;;;5015925;28;20136;-91
2022/07/19 06:43:09;;;;;;;11.50;5.57;;;;;;;;;;5015714;28;20049;-92
2022/07/19 06:45:35;;;;;;;6.97;4.40;;;21.40;99.90;;;;;;4999120;28;20087;-92
2022/07/19 06:48:01;;;;;;;9.95;5.07;;;21.60;99.90;;;;;;4999415;28;20092;-92
2022/07/19 06:50:27;;;;;;;8.50;5.65;;;;;;;;;;5015820;28;20041;-91
2022/07/19 06:52:53;;;;;;;7.43;4.70;;;21.60;99.90;;;;;;5015630;28;20049;-92
2022/07/19 06:55:19;;;;;;;7.68;4.60;;;22.00;99.90;;;;;;5015399;28;20053;-91
2022/07/19 06:57:45;;;;;;;6.25;4.75;;;21.80;99.90;;;;;;5015652;28;20045;-84
2022/07/19 07:00:11;;;;;;;6.07;3.83;;;21.90;99.90;;;;;;5015565;28;20402;-92
2022/07/19 07:02:37;;;;;;;8.88;4.55;;;22.10;99.90;;;;;;5014288;28;20110;-83
2022/07/19 07:05:05;;;;;;;6.35;4.75;;;22.20;99.90;;;;;;5014277;28;20041;-82
2022/07/19 07:07:30;;;;;;;5.50;4.25;;;22.10;99.90;;;;;;5013832;28;20056;-82
2022/07/19 07:09:56;;;;;;;7.95;4.45;;;22.30;99.90;;;;;;5014236;28;20045;-82
2022/07/19 07:12:22;;;;;;;7.13;3.97;;;22.50;99.90;;;;;;4997677;28;20495;-84
2022/07/19 07:14:48;;;;;;;5.13;3.97;;;22.50;99.90;;;;;;4997918;28;20045;-83
2022/07/19 07:17:14;;;;;;;5.47;3.90;;;;;;;;;;5014055;28;20052;-83
2022/07/19 07:19:39;;;;;;;4.80;3.83;;;22.70;99.90;;;;;;4997894;28;20077;-83
2022/07/19 07:22:05;;;;;;;8.52;4.13;;;23.00;99.90;;;;;;4997291;28;20528;-83
2022/07/19 07:24:31;;;;;;;4.85;3.70;;;23.00;99.90;;;;;;5030610;28;20046;-83
2022/07/19 07:26:57;;;;;;;13.02;4.32;;;23.20;99.90;;;;;;5014182;28;20490;-83
2022/07/19 07:29:23;;;;;;;8.02;4.43;;;23.30;99.90;;;;;;5013911;28;20410;-82
2022/07/19 07:31:49;;;;;;;4.70;3.83;;;23.20;99.90;;;;;;4997864;28;20080;-84
2022/07/19 07:34:15;;;;;;;6.75;4.53;;;23.50;99.90;;;;;;5013599;28;20502;-83
2022/07/19 07:36:41;;;;;;;9.90;3.90;;;;;;;;;;5014558;28;20084;-86
2022/07/19 07:39:07;;;;;;;9.13;3.38;;;23.60;99.90;;;;;;5014088;28;20133;-90
2022/07/19 07:41:33;;;;;;;4.35;3.50;;;23.70;99.90;;;;;;5030406;28;20140;-86
2022/07/19 07:43:58;;;;;;;10.60;4.40;;;23.70;99.90;;;;;;4997713;28;20057;-88
2022/07/19 07:46:24;;;;;;;7.22;3.83;;;24.30;99.90;;;;;;5014233;28;20045;-88
2022/07/19 07:48:49;;;;;;;7.28;3.60;;;24.10;99.90;;;;;;5014252;28;20185;-85
2022/07/19 07:51:15;;;;;;;8.07;4.25;;;24.00;99.90;;;;;;4998202;28;20045;-87
2022/07/19 07:53:41;;;;;;;7.65;3.75;;;24.40;99.90;;;;;;5032051;28;20064;-91
2022/07/19 07:56:06;;;;;;;10.65;3.63;;;24.50;99.90;;;;;;5013970;28;20106;-86
2022/07/19 07:58:32;;;;;;;8.20;4.00;;;24.50;99.90;;;;;;5013974;28;20072;-89
2022/07/19 08:00:58;;;;;;;7.82;3.72;;;24.60;99.90;;;;;;4997518;28;20111;-89
2022/07/19 08:03:23;;;;;;;7.28;4.43;;;24.80;99.90;;;;;;4997593;28;20055;-89
2022/07/19 08:05:49;;;;;;;6.97;4.40;;;24.90;99.90;;;;;;5013970;28;20092;-88
2022/07/19 08:08:15;;;;;;;13.15;4.57;;;24.80;99.90;;;;;;5013847;28;20057;-86
2022/07/19 08:10:40;;;;;;;7.43;3.72;;;26.40;99.90;;;;;;4997103;28;20041;-82
2022/07/19 08:13:07;;;;;;;4.28;3.13;;;25.20;99.90;;;;;;5013399;28;20046;-84
2022/07/19 08:15:33;;;;;;;4.60;3.00;;;25.40;99.90;;;;;;4997493;28;20049;-84
2022/07/19 08:17:59;;;;;;;7.47;3.60;;;25.50;99.90;;;;;;4997048;28;20049;-83
2022/07/19 08:20:25;;;;;;;10.00;3.47;;;25.70;99.90;;;;;;5031917;28;20128;-85
2022/07/19 08:22:51;;;;;;;14.63;3.83;;;25.80;99.90;;;;;;5016917;28;20096;-84
2022/07/19 08:25:17;;;;;;;4.38;3.08;;;25.90;99.90;;;;;;5016958;28;20050;-86
2022/07/19 08:27:44;;;;;;;6.75;2.80;;;25.80;99.90;;;;;;5017614;28;20056;-83
2022/07/19 08:30:11;;;;;;;6.45;2.67;;;25.90;99.90;;;;;;5017138;28;20057;-83
2022/07/19 08:32:37;;;;;;;6.38;3.40;;;26.10;99.90;;;;;;5017158;28;20521;-83
2022/07/19 08:35:04;;;;;;;5.97;3.13;;;26.10;99.90;;;;;;5017305;28;20478;-82
2022/07/19 08:37:30;;;;;;;8.60;4.07;;;26.10;99.90;;;;;;5000813;28;20529;-85
2022/07/19 08:39:56;;;;;;;8.38;3.63;;;26.40;99.90;;;;;;5000812;28;20068;-83
2022/07/19 08:42:21;;;;;;;4.53;2.88;;;26.60;99.90;;;;;;5000160;28;20136;-86
2022/07/19 08:44:52;;;;;;;7.85;3.22;;;26.90;99.90;;;;;;5016858;28;20045;-86
2022/07/19 08:47:19;;;;;;;9.63;3.10;;;26.90;99.90;;;;;;5016728;28;20057;-87
2022/07/19 08:49:45;;;;;;;7.47;3.20;;;27.20;99.90;;;;;;5000331;28;20045;-84
2022/07/19 08:52:12;;;;;;;5.82;2.95;;;27.20;99.90;;;;;;5016706;28;20038;-83
2022/07/19 08:54:38;;;;;;;4.03;2.97;;;27.00;99.90;;;;;;5016801;28;20041;-84
2022/07/19 08:59:48;;;;;;;4.57;2.70;;;27.30;99.90;;;;;;5016703;28;20053;-82
2022/07/19 09:02:14;;;;;;;5.13;2.88;;;27.40;99.90;;;;;;5000096;28;20395;-83
2022/07/19 09:04:40;;;;;;;5.40;3.10;;;27.80;99.90;;;;;;5016469;28;20393;-83
2022/07/19 09:07:06;;;;;;;5.03;3.42;;;28.00;99.90;;;;;;5016277;28;20095;-84
2022/07/19 09:09:34;;;;;;;4.97;2.92;;;27.80;99.90;;;;;;5016159;28;20123;-84
2022/07/19 09:12:02;;;;;;;7.50;3.65;;;28.10;99.90;;;;;;5016257;28;20037;-83
2022/07/19 09:14:34;;;;;;;7.60;2.40;;;28.20;99.90;;;;;;5016430;28;20136;-83
2022/07/19 09:17:16;;;;;;;3.75;2.47;;;28.20;99.90;;;;;;5032753;28;20049;-83
2022/07/19 09:19:44;;;;;;;3.22;2.42;;;28.30;99.90;;;;;;5000188;28;20464;-88
2022/07/19 09:22:18;;;;;;;4.22;2.50;;;28.50;99.90;;;;;;5015936;28;20050;-89
2022/07/19 09:24:47;;;;;;;4.68;3.03;;;28.60;99.90;;;;;;5016697;28;20053;-91
2022/07/19 09:27:18;;;;;;;3.88;2.33;;;28.70;99.90;;;;;;5032429;28;20486;-90
2022/07/19 09:29:46;;;;;;;5.65;2.20;;;29.00;99.90;;;;;;5016263;28;20046;-90
2022/07/19 09:32:19;;;;;;;5.40;2.80;;;28.90;99.90;;;;;;4999722;28;20038;-90
2022/07/19 09:34:55;;;;;;;5.45;2.55;;;29.20;99.90;;;;;;5016096;28;20486;-87
2022/07/19 09:37:28;;;;;;;2.63;2.15;;;29.10;99.90;;;;;;5016126;28;20042;-90
2022/07/19 09:39:59;;;;;;;4.55;2.72;;;29.30;99.90;;;;;;4999741;28;20099;-92
2022/07/19 09:42:44;;;;;;;6.18;2.72;;;29.40;99.90;;;;;;5015838;28;20502;-90
2022/07/19 09:45:15;;;;;;;8.75;2.15;;;29.50;99.90;;;;;;4999807;28;20042;-86
2022/07/19 09:47:42;;;;;;;6.13;1.83;;;29.90;99.90;;;;;;4999394;28;20041;-88
2022/07/19 09:50:19;;;;;;;1.85;1.75;;;30.00;99.90;;;;;;4999951;28;20454;-89
2022/07/19 09:52:47;;;;;;;6.72;2.35;;;30.10;99.90;;;;;;4999490;28;20095;-89
2022/07/19 09:55:12;;;;;;;3.70;1.70;;;30.00;99.90;;;;;;5015678;28;20049;-84
2022/07/19 09:57:41;;;;;;;2.63;1.92;;;30.10;99.90;;;;;;5015311;28;20059;-84
2022/07/19 10:00:08;;;;;;;7.13;2.15;;;30.00;99.90;;;;;;5015705;28;20045;-90
2022/07/19 10:02:36;;;;;;;2.42;2.08;;;30.30;99.90;;;;;;4999281;28;20045;-89
2022/07/19 10:05:04;;;;;;;3.17;2.20;;;30.50;99.90;;;;;;5015524;28;20080;-88
2022/07/19 10:07:32;;;;;;;8.15;2.95;;;30.80;99.90;;;;;;5031787;28;20057;-87
2022/07/19 10:10:03;;;;;;;10.23;1.92;;;30.50;99.90;;;;;;4999019;28;20047;-88
2022/07/19 10:12:30;;;;;;;14.48;2.78;;;30.70;99.90;;;;;;5031966;28;20103;-84
2022/07/19 10:14:55;;;;;;;6.22;2.15;;;30.80;99.90;;;;;;4998787;28;20045;-89
2022/07/19 10:17:28;;;;;;;6.65;1.98;;;30.80;99.90;;;;;;4998723;28;20099;-82
2022/07/19 10:19:56;;;;;;;10.55;2.35;;;30.90;99.90;;;;;;4998684;28;20057;-82
2022/07/19 10:22:24;;;;;;;4.68;2.00;;;31.00;99.90;;;;;;5014786;28;20096;-82
2022/07/19 10:24:52;;;;;;;3.65;2.30;;;31.00;99.90;;;;;;5014981;28;20094;-82
2022/07/19 10:27:46;;;;;;;4.53;2.03;;;31.30;99.90;;;;;;4998646;28;20057;-82
2022/07/19 10:30:11;;;;;;;4.07;1.80;;;31.30;99.90;;;;;;5007255;28;20096;-83
2022/07/19 10:32:39;;;;;;;4.13;1.90;;;31.40;99.90;;;;;;4998432;28;20113;-82
2022/07/19 10:35:21;;;;;;;8.52;2.60;;;31.60;99.90;;;;;;5014794;28;20050;-82
2022/07/19 10:37:55;;;;;;;5.65;2.33;;;31.60;99.90;;;;;;4998744;28;20124;-82
2022/07/19 10:40:40;;;;;;;4.03;2.03;;;31.60;99.90;;;;;;5014658;28;20049;-83
2022/07/19 10:43:13;;;;;;;4.30;1.80;;;31.60;99.90;;;;;;4997752;28;20049;-85
2022/07/19 10:45:40;;;;;;;;;;;31.70;99.90;;;;;;4998496;28;20042;-84
2022/07/19 10:48:08;;;;;;;6.68;3.60;;;31.80;99.90;;;;;;5014786;28;19921;-82
2022/07/19 10:50:45;;;;;;;2.03;1.60;;;32.00;99.90;;;;;;4997932;28;20041;-82
2022/07/19 10:53:11;;;;;;;6.93;1.42;;;32.10;99.90;;;;;;4998453;28;20052;-82
2022/07/19 10:55:36;;;;;;;2.45;1.80;;;32.00;99.90;;;;;;4998243;28;20456;-88
2022/07/19 10:58:05;;;;;;;4.32;2.17;;;32.00;99.90;;;;;;5014802;28;20041;-88
2022/07/19 11:00:42;;;;;;;5.70;1.80;;;34.20;99.90;;;;;;5014259;28;20064;-89
2022/07/19 11:03:23;;;;;;;3.30;1.85;;;32.40;99.90;;;;;;5014390;28;20052;-88
2022/07/19 11:05:55;;;;;;;5.18;1.92;;;32.30;99.90;;;;;;5014635;28;20064;-88
2022/07/19 11:08:34;;;;;;;2.33;1.80;;;32.40;99.90;;;;;;5014194;28;20452;-87
2022/07/19 11:11:03;;;;;;;3.22;1.83;;;32.40;99.90;;;;;;5031905;28;20494;-87
2022/07/19 11:13:29;;;;;;;2.08;1.70;;;32.50;99.90;;;;;;5014155;28;20045;-89
2022/07/19 11:15:56;;;;;;;2.95;1.20;;;32.70;99.90;;;;;;5013828;28;20049;-87
2022/07/19 11:18:22;;;;;;;2.20;1.48;;;32.70;99.90;;;;;;5032086;28;20431;-88
2022/07/19 11:20:48;;;;;;;3.17;1.63;;;32.80;99.90;;;;;;5032023;28;20089;-88
2022/07/19 11:23:18;;;;;;;2.47;1.58;;;32.80;99.90;;;;;;5014114;28;20132;-88
2022/07/19 11:25:44;;;;;;;3.70;1.15;;;33.20;99.90;;;;;;4997839;28;20056;-87
2022/07/19 11:28:24;;;;;;;2.42;1.20;;;33.30;99.90;;;;;;5014139;28;20041;-89
2022/07/19 11:30:50;;;;;;;1.92;1.73;;;33.10;99.90;;;;;;5014123;28;20124;-88
2022/07/19 11:33:19;;;;;;;2.63;1.50;;;33.10;99.90;;;;;;5031868;28;20414;-82
2022/07/19 11:35:59;;;;;;;2.13;1.38;;;33.50;99.90;;;;;;5031859;28;20046;-82
2022/07/19 11:38:40;;;;;;;2.22;1.30;;;33.50;99.90;;;;;;5031600;28;20049;-82
2022/07/19 11:41:17;;;;;;;2.25;1.35;;;33.40;99.90;;;;;;5013771;28;20056;-83
2022/07/19 11:43:43;;;;;;;1.65;1.40;;;33.50;99.90;;;;;;4997473;28;20048;-82
2022/07/19 11:46:09;;;;;;;3.60;1.30;;;33.60;99.90;;;;;;5013818;28;20045;-82
2022/07/19 11:48:34;;;;;;;1.40;0.95;;;33.70;99.90;;;;;;5014052;28;20049;-83
2022/07/19 11:51:08;;;;;;;8.35;1.55;;;34.00;99.90;;;;;;5013714;28;20041;-82
2022/07/19 11:53:36;;;;;;;1.35;1.10;;;33.90;99.90;;;;;;5014520;28;20052;-82
2022/07/19 11:56:03;;;;;;;2.10;1.20;;;33.80;99.90;;;;;;5018091;28;20049;-81
2022/07/19 11:58:30;;;;;;;2.75;1.50;;;34.40;99.90;;;;;;5017910;28;20049;-83
2022/07/19 12:01:03;;;;;;;2.88;0.90;;;35.20;99.90;;;;;;5001316;28;20088;-82
2022/07/19 12:03:29;;;;;;;3.13;0.90;;;34.20;99.90;;;;;;5017507;28;20136;-83
2022/07/19 12:06:08;;;;;;;1.15;1.05;;;34.30;99.70;;;;;;5017807;28;20046;-83
2022/07/19 12:08:41;;;;;;;2.15;1.20;;;34.40;99.80;;;;;;5001259;28;20051;-82
2022/07/19 12:11:17;;;;;;;0.82;0.82;;;34.40;99.70;;;;;;5001080;28;20037;-82
2022/07/19 12:13:43;;;;;;;2.55;1.38;;;32.20;99.10;;;;;;5001456;28;20068;-82
2022/07/19 12:16:10;;;;;;;6.00;1.20;;;34.70;99.60;;;;;;5017270;28;20502;-82
2022/07/19 12:18:54;;;;;;;2.25;1.10;;;34.90;99.90;;;;;;5017250;28;20037;-83
2022/07/19 12:21:42;;;;;;;1.40;0.90;;;34.50;98.50;;;;;;5000854;28;20100;-83
2022/07/19 12:24:15;;;;;;;1.33;1.23;;;34.70;98.40;;;;;;4996392;28;20409;-83
2022/07/19 12:26:55;;;;;;;6.85;1.10;;;34.80;98.70;;;;;;5017315;28;20045;-82
2022/07/19 12:29:25;;;;;;;5.55;1.20;;;34.70;97.70;;;;;;5000401;28;20092;-83
2022/07/19 12:31:54;;;;;;;2.03;1.30;;;34.90;98.40;;;;;;5017156;28;20052;-83
2022/07/19 12:34:20;;;;;;;8.90;1.65;;;34.90;98.20;;;;;;5000358;28;20059;-83
2022/07/19 12:36:46;;;;;;;3.45;1.20;;;35.00;98.50;;;;;;5000841;28;20045;-83
2022/07/19 12:39:22;;;;;;;3.30;1.15;;;35.30;98.10;;;;;;5000975;28;20050;-82
2022/07/19 12:42:06;;;;;;;2.28;1.58;;;35.40;98.30;;;;;;5000443;28;20045;-82
2022/07/19 12:44:32;;;;;;;;;;;35.40;97.70;;;;;;5000851;28;20052;-82
2022/07/19 12:47:00;;;;;;;3.25;1.30;;;33.00;97.00;;;;;;5000513;28;20373;-84
2022/07/19 12:49:43;;;;;;;2.45;1.25;;;34.90;97.30;;;;;;5016590;28;20052;-84
2022/07/19 12:52:09;;;;;;;4.32;1.50;;;35.20;97.10;;;;;;5016921;28;20049;-82
2022/07/19 12:54:35;;;;;;;4.28;1.67;;;35.30;97.40;;;;;;5016679;28;20474;-86
2022/07/19 12:57:01;;;;;;;5.30;1.35;;;35.10;97.00;;;;;;5000348;28;20037;-85
2022/07/19 12:59:38;;;;;;;4.07;1.40;;;35.20;97.10;;;;;;5000334;28;20103;-84
2022/07/19 13:02:04;;;;;;;3.38;1.60;;;35.50;96.60;;;;;;5000098;28;20041;-83
2022/07/19 13:04:30;;;;;;;5.53;1.33;;;35.40;97.60;;;;;;5016505;28;20115;-83
2022/07/19 13:06:55;;;;;;;4.35;1.50;;;35.60;97.20;;;;;;5033570;28;20040;-86
2022/07/19 13:09:24;;;;;;;3.35;1.05;;;35.40;96.90;;;;;;5017089;28;20053;-84
2022/07/19 13:11:50;;;;;;;2.80;1.33;;;35.40;96.60;;;;;;5034350;28;20099;-85
2022/07/19 13:14:16;;;;;;;1.88;1.45;;;35.60;96.20;;;;;;5000101;28;20045;-85
2022/07/19 13:16:42;;;;;;;4.00;1.25;;;35.60;96.50;;;;;;5018204;28;20056;-84
2022/07/19 13:19:07;;;;;;;4.00;1.45;;;35.90;96.80;;;;;;5016195;28;20060;-85
2022/07/19 13:21:34;;;;;;;3.58;1.60;;;35.50;96.50;;;;;;5016160;28;20037;-84
2022/07/19 13:23:59;;;;;;;3.05;1.60;;;35.60;96.00;;;;;;4999456;28;20095;-82
2022/07/19 13:26:25;;;;;;;4.88;1.50;;;35.80;96.20;;;;;;5000113;28;20132;-83
2022/07/19 13:28:51;;;;;;;8.45;1.20;;;36.00;96.20;;;;;;4999545;28;20403;-83
2022/07/19 13:31:17;;;;;;;2.35;1.17;;;36.20;96.20;;;;;;4999593;28;20057;-85